Time;durP1;ratioP1;P1;durP2;ratioP2;P2;SDS_P1;SDS_P2;PMS_P1;PMS_P2;Temp;Humidity;BMP_temperature;BMP_pressure;BME280_temperature;BME280_humidity;BME280_pressure;Samples;Min_cycle;Max_cycle;Signal;HPM_P1;HPM_P2
2023/03/07 00:00:40;;;;;;;14.97;8.03;;;;;;;8.39;77.69;93671.75;5090206;28;20261;-55
2023/03/07 00:03:06;;;;;;;18.90;8.70;;;;;;;8.34;77.60;93671.38;5090697;28;20596;-55
2023/03/07 00:05:32;;;;;;;16.37;8.30;;;;;;;8.24;77.90;93645.28;5090669;28;20697;-54
2023/03/07 00:07:58;;;;;;;16.30;9.20;;;;;;;8.29;80.87;93622.91;5090422;28;20213;-56
2023/03/07 00:10:24;;;;;;;16.20;8.80;;;;;;;8.46;78.33;93664.41;5071422;28;20214;-56
2023/03/07 00:12:49;;;;;;;16.13;9.10;;;;;;;8.42;78.01;93670.69;5090232;28;20188;-55
2023/03/07 00:15:16;;;;;;;18.57;9.53;;;;;;;8.29;78.85;93652.47;5090235;28;20689;-56
2023/03/07 00:17:41;;;;;;;18.20;9.77;;;;;;;8.21;79.51;93648.09;5090253;28;20188;-53
2023/03/07 00:20:10;;;;;;;14.13;8.60;;;;;;;8.33;79.04;93657.13;5090461;28;20727;-56
2023/03/07 00:22:36;;;;;;;14.27;8.40;;;;;;;8.13;79.63;93627.75;5090106;28;20227;-55
2023/03/07 00:25:03;;;;;;;16.30;7.87;;;;;;;7.93;80.95;93610.25;5090355;28;20207;-55
2023/03/07 00:27:30;;;;;;;14.53;7.97;;;;;;;7.79;82.14;93603.94;5090186;28;20729;-53
2023/03/07 00:29:56;;;;;;;12.73;6.90;;;;;;;7.74;81.16;93606.06;5071953;28;20693;-52
2023/03/07 00:32:21;;;;;;;14.13;7.40;;;;;;;7.50;82.67;93581.28;5089959;28;20191;-53
2023/03/07 00:34:47;;;;;;;9.30;6.50;;;;;;;7.59;81.34;93610.00;5090161;28;20708;-54
2023/03/07 00:37:14;;;;;;;11.83;6.63;;;;;;;7.34;83.92;93582.78;5090251;28;20231;-53
2023/03/07 00:39:40;;;;;;;11.23;6.73;;;;;;;7.27;84.35;93582.53;5090007;28;20234;-54
2023/03/07 00:42:06;;;;;;;9.83;5.90;;;;;;;7.59;81.87;93628.47;5089980;28;20215;-54
2023/03/07 00:44:32;;;;;;;12.03;7.33;;;;;;;7.61;81.80;93631.66;5090080;28;20222;-53
2023/03/07 00:46:58;;;;;;;10.40;6.33;;;;;;;7.60;81.56;93619.97;5071832;28;20198;-54
2023/03/07 00:49:23;;;;;;;9.97;6.10;;;;;;;7.60;82.09;93609.84;5090126;28;20668;-54
2023/03/07 00:51:49;;;;;;;10.40;6.37;;;;;;;7.58;82.13;93609.19;5089883;28;20291;-58
2023/03/07 00:54:15;;;;;;;8.27;5.80;;;;;;;7.44;82.30;93581.81;5089736;28;20204;-56
2023/03/07 00:56:41;;;;;;;13.03;6.50;;;;;;;7.27;84.21;93547.13;5089765;28;20223;-56
2023/03/07 00:59:06;;;;;;;12.80;7.23;;;;;;;7.34;84.43;93562.56;5089761;28;20617;-56
2023/03/07 01:01:32;;;;;;;12.63;5.87;;;;;;;7.42;82.61;93613.22;5089873;28;20605;-54
2023/03/07 01:03:57;;;;;;;11.73;6.37;;;;;;;7.52;82.09;93631.69;5071320;28;20634;-54
2023/03/07 01:06:26;;;;;;;12.37;7.13;;;;;;;7.52;81.82;93640.09;5089894;28;20187;-53
2023/03/07 01:08:52;;;;;;;12.00;6.23;;;;;;;7.54;83.25;93625.56;5089585;28;20336;-53
2023/03/07 01:11:18;;;;;;;11.07;6.23;;;;;;;7.74;81.11;93641.47;5089913;28;20196;-53
2023/03/07 01:13:44;;;;;;;11.13;5.97;;;;;;;7.89;80.74;93670.47;5089485;28;20195;-53
2023/03/07 01:16:14;;;;;;;10.73;6.23;;;;;;;7.79;80.83;93679.03;5071519;28;20589;-54
2023/03/07 01:18:40;;;;;;;9.07;6.13;;;;;;;7.84;80.05;93687.00;5089501;28;20185;-55
2023/03/07 01:21:22;;;;;;;10.10;5.57;;;;;;;8.00;79.33;93694.81;5089913;28;20212;-55
2023/03/07 01:23:48;;;;;;;9.67;5.70;;;;;;;8.09;82.61;93621.38;5092776;28;20219;-54
2023/03/07 01:26:16;;;;;;;8.77;5.67;;;;;;;8.12;79.53;93671.72;5092819;28;20192;-56
2023/03/07 01:28:42;;;;;;;9.73;5.83;;;;;;;8.07;79.97;93633.38;5092647;28;20188;-55
2023/03/07 01:31:07;;;;;;;9.37;5.23;;;;;;;8.15;78.18;93684.09;5093055;28;20199;-55
2023/03/07 01:33:33;;;;;;;10.47;5.73;;;;;;;7.87;77.52;93692.59;5092616;28;20237;-58
2023/03/07 01:35:58;;;;;;;8.30;6.20;;;;;;;7.61;77.85;93687.28;5093051;28;20393;-56
2023/03/07 01:38:24;;;;;;;9.73;5.83;;;;;;;7.42;79.50;93654.47;5092762;28;20196;-57
2023/03/07 01:40:49;;;;;;;8.97;5.67;;;;;;;7.45;79.86;93635.72;5092566;28;20665;-58
2023/03/07 01:43:29;;;;;;;8.67;5.57;;;;;;;7.36;80.90;93608.72;5092634;28;20714;-61
2023/03/07 01:46:18;;;;;;;11.50;5.80;;;;;;;7.31;81.96;93633.63;5092977;28;20259;-55
2023/03/07 01:49:06;;;;;;;8.77;5.70;;;;;;;7.21;81.24;93613.38;5043431;28;20212;-53
2023/03/07 01:51:33;;;;;;;15.17;6.37;;;;;;;7.21;84.71;93530.00;5092526;28;20728;-53
2023/03/07 01:54:00;;;;;;;11.37;5.93;;;;;;;7.44;82.39;93603.78;5092301;28;20212;-53
2023/03/07 01:56:27;;;;;;;9.23;4.97;;;;;;;7.35;81.64;93614.72;5092829;28;20199;-53
2023/03/07 01:58:53;;;;;;;10.47;6.20;;;;;;;7.41;83.40;93591.41;5092409;28;20299;-54
2023/03/07 02:01:19;;;;;;;9.30;5.47;;;;;;;7.58;81.02;93641.25;5092481;28;20223;-53
2023/03/07 02:04:06;;;;;;;6.90;5.33;;;;;;;7.59;81.38;93627.69;5092214;28;20188;-54
2023/03/07 02:06:35;;;;;;;9.77;5.57;;;;;;;7.53;82.35;93595.38;5092442;28;20673;-53
2023/03/07 02:09:01;;;;;;;13.40;6.37;;;;;;;7.46;82.08;93627.19;5092235;28;20200;-54
2023/03/07 02:11:27;;;;;;;11.13;5.83;;;;;;;7.40;83.38;93597.41;5092369;28;20204;-54
2023/03/07 02:13:53;;;;;;;10.17;6.43;;;;;;;7.38;82.83;93604.31;5092027;28;20299;-54
2023/03/07 02:16:18;;;;;;;10.23;6.80;;;;;;;7.55;82.09;93621.31;5092102;28;20366;-54
2023/03/07 02:18:47;;;;;;;9.73;5.83;;;;;;;7.74;80.02;93649.06;5092142;28;20188;-54
2023/03/07 02:21:22;;;;;;;10.20;6.03;;;;;;;7.91;79.57;93668.59;5074038;28;20318;-54
2023/03/07 02:24:13;;;;;;;8.60;5.40;;;;;;;7.95;78.62;93679.25;5091973;28;20211;-54
2023/03/07 02:26:43;;;;;;;10.40;6.33;;;;;;;7.81;80.39;93645.06;5078542;28;20216;-56
2023/03/07 02:29:09;;;;;;;10.27;5.70;;;;;;;7.80;80.94;93635.88;5091930;28;20215;-56
2023/03/07 02:31:34;;;;;;;12.33;6.17;;;;;;;7.87;79.51;93661.41;5091944;28;20222;-57
2023/03/07 02:34:00;;;;;;;12.90;6.00;;;;;;;7.70;80.65;93647.75;5091321;28;20682;-58
2023/03/07 02:36:32;;;;;;;9.73;5.87;;;;;;;7.70;81.43;93629.25;5091854;28;20192;-56
2023/03/07 02:39:02;;;;;;;10.27;6.47;;;;;;;7.81;80.78;93621.50;5073593;28;20734;-58
2023/03/07 02:41:30;;;;;;;9.83;5.87;;;;;;;7.87;80.42;93643.72;5091748;28;20204;-58
2023/03/07 02:43:56;;;;;;;10.60;5.93;;;;;;;7.70;80.57;93640.16;5091602;28;20712;-57
2023/03/07 02:46:21;;;;;;;7.73;5.90;;;;;;;7.47;81.11;93633.84;5091884;28;20274;-53
2023/03/07 02:48:47;;;;;;;10.07;6.40;;;;;;;7.34;82.69;93600.47;5091536;28;20200;-53
2023/03/07 02:51:12;;;;;;;11.03;6.40;;;;;;;7.34;84.05;93563.34;5091654;28;20557;-53
2023/03/07 02:53:38;;;;;;;16.60;9.77;;;;;;;7.40;85.03;93557.75;5091708;28;20209;-54
2023/03/07 02:56:04;;;;;;;9.27;5.97;;;;;;;7.66;82.07;93608.50;5091617;28;20332;-53
2023/03/07 02:58:30;;;;;;;12.13;6.43;;;;;;;7.62;81.82;93632.47;5091340;28;20286;-52
2023/03/07 03:00:55;;;;;;;11.50;6.17;;;;;;;7.60;82.76;93604.78;5091896;28;20330;-57
2023/03/07 03:03:21;;;;;;;9.83;6.03;;;;;;;7.59;83.45;93582.97;5091566;28;20283;-56
2023/03/07 03:05:47;;;;;;;7.33;5.30;;;;;;;7.75;82.38;93617.81;5091701;28;20204;-57
2023/03/07 03:08:12;;;;;;;7.70;5.73;;;;;;;7.91;81.68;93642.50;5073202;28;20199;-52
2023/03/07 03:10:38;;;;;;;9.37;6.40;;;;;;;7.97;81.51;93650.34;5091161;28;20211;-58
2023/03/07 03:13:03;;;;;;;9.80;5.90;;;;;;;8.02;79.70;93663.34;5091416;28;20215;-57
2023/03/07 03:15:29;;;;;;;8.67;6.00;;;;;;;7.85;81.63;93633.72;5091254;28;20260;-58
2023/03/07 03:17:54;;;;;;;9.27;5.57;;;;;;;7.91;80.84;93640.78;5091148;28;20192;-57
2023/03/07 03:20:19;;;;;;;10.33;5.70;;;;;;;7.88;79.77;93676.44;5091705;28;20210;-58
2023/03/07 03:22:45;;;;;;;8.60;5.63;;;;;;;7.78;80.67;93647.09;5091192;28;20694;-57
2023/03/07 03:25:12;;;;;;;10.43;6.70;;;;;;;7.74;81.56;93611.13;5091428;28;20207;-57
2023/03/07 03:27:38;;;;;;;9.30;5.90;;;;;;;7.83;81.04;93650.78;5090937;28;20223;-57
2023/03/07 03:30:07;;;;;;;11.57;6.27;;;;;;;7.67;81.63;93644.72;5090993;28;20224;-58
2023/03/07 03:32:32;;;;;;;8.77;5.60;;;;;;;7.64;81.38;93631.41;5090969;28;20230;-55
2023/03/07 03:34:58;;;;;;;11.50;6.30;;;;;;;7.75;81.41;93622.06;5072822;28;20231;-57
2023/03/07 03:37:24;;;;;;;10.77;5.67;;;;;;;7.91;81.29;93623.06;5091034;28;20185;-53
2023/03/07 03:39:51;;;;;;;9.50;5.87;;;;;;;7.87;83.54;93565.28;5090978;28;20208;-53
2023/03/07 03:42:17;;;;;;;12.77;5.93;;;;;;;7.65;81.76;93622.88;5090836;28;20243;-53
2023/03/07 03:44:42;;;;;;;10.53;5.83;;;;;;;7.76;81.82;93638.84;5071987;28;20651;-58
2023/03/07 03:47:08;;;;;;;11.57;6.03;;;;;;;7.79;83.20;93609.00;5090902;28;20245;-58
2023/03/07 03:49:34;;;;;;;10.00;5.90;;;;;;;8.00;81.02;93644.97;5090996;28;20258;-58
2023/03/07 03:51:59;;;;;;;10.93;5.40;;;;;;;8.00;80.70;93664.44;5072516;28;20253;-57
2023/03/07 03:54:25;;;;;;;10.60;6.10;;;;;;;7.92;81.64;93639.81;5072720;28;20611;-58
2023/03/07 03:56:52;;;;;;;7.93;5.97;;;;;;;7.83;82.49;93629.75;5072661;28;20194;-55
2023/03/07 03:59:18;;;;;;;11.43;6.37;;;;;;;8.11;81.02;93669.31;5090571;28;20320;-57
2023/03/07 04:01:43;;;;;;;8.80;5.30;;;;;;;8.21;79.83;93693.66;5090684;28;20264;-58
2023/03/07 04:04:08;;;;;;;12.47;5.80;;;;;;;8.10;79.37;93700.66;5090478;28;20673;-57
2023/03/07 04:06:34;;;;;;;12.90;6.83;;;;;;;7.99;80.03;93665.38;5072214;28;20188;-57
2023/03/07 04:08:59;;;;;;;10.60;6.23;;;;;;;8.00;80.60;93666.97;5072264;28;20652;-57
2023/03/07 04:11:25;;;;;;;10.87;6.03;;;;;;;7.81;82.09;93654.38;5072127;28;20188;-59
2023/03/07 04:13:51;;;;;;;7.83;5.43;;;;;;;7.91;81.07;93663.53;5090378;28;20224;-54
2023/03/07 04:16:17;;;;;;;10.77;6.63;;;;;;;8.08;79.58;93683.03;5090314;28;20270;-53
2023/03/07 04:18:43;;;;;;;9.90;6.13;;;;;;;7.96;80.56;93646.19;5071860;28;20634;-54
2023/03/07 04:21:12;;;;;;;10.90;6.30;;;;;;;8.05;80.11;93669.88;5090103;28;20261;-54
2023/03/07 04:23:37;;;;;;;9.90;6.57;;;;;;;7.96;81.24;93663.91;5072034;28;20192;-53
2023/03/07 04:26:05;;;;;;;8.43;5.70;;;;;;;7.86;81.42;93657.31;5089971;28;20195;-57
2023/03/07 04:28:47;;;;;;;8.87;6.10;;;;;;;7.84;82.77;93638.94;5071714;28;20196;-57
2023/03/07 04:31:16;;;;;;;9.27;6.07;;;;;;;8.00;81.20;93660.16;5090071;28;20183;-59
2023/03/07 04:33:41;;;;;;;12.33;6.83;;;;;;;7.97;81.38;93663.00;5089991;28;20203;-58
2023/03/07 04:36:08;;;;;;;13.00;6.53;;;;;;;7.98;81.57;93651.13;5089925;28;20181;-58
2023/03/07 04:38:33;;;;;;;11.67;6.37;;;;;;;8.00;82.61;93627.28;5090058;28;20569;-57
2023/03/07 04:40:59;;;;;;;13.00;6.97;;;;;;;7.99;82.53;93640.88;5089800;28;20208;-54
2023/03/07 04:43:24;;;;;;;11.93;7.00;;;;;;;7.80;84.25;93604.75;5090299;28;20184;-55
2023/03/07 04:45:51;;;;;;;12.17;6.80;;;;;;;7.77;84.43;93605.81;5090120;28;20188;-56
2023/03/07 04:48:17;;;;;;;8.93;6.30;;;;;;;7.90;84.93;93618.91;5089863;28;20275;-55
2023/03/07 04:50:42;;;;;;;11.37;6.70;;;;;;;7.90;84.59;93626.50;5090374;28;20224;-55
2023/03/07 04:53:07;;;;;;;10.60;6.60;;;;;;;7.93;85.32;93623.72;5089861;28;20196;-56
2023/03/07 04:55:33;;;;;;;10.73;6.43;;;;;;;8.18;83.07;93660.25;5090238;28;20200;-53
2023/03/07 04:57:58;;;;;;;9.97;6.27;;;;;;;8.03;83.60;93648.97;5093140;28;20239;-53
2023/03/07 05:00:23;;;;;;;10.93;7.17;;;;;;;7.65;87.22;93581.63;5093627;28;20682;-53
2023/03/07 05:02:49;;;;;;;12.37;7.33;;;;;;;7.60;87.60;93586.28;5093412;28;20212;-55
2023/03/07 05:05:16;;;;;;;10.93;6.87;;;;;;;7.74;86.37;93603.53;5093531;28;20238;-57
2023/03/07 05:07:42;;;;;;;12.53;7.10;;;;;;;7.99;85.22;93640.06;5075150;28;20772;-57
2023/03/07 05:10:09;;;;;;;10.80;7.07;;;;;;;7.85;85.78;93623.63;5093173;28;20200;-59
2023/03/07 05:12:35;;;;;;;12.20;7.67;;;;;;;7.75;86.98;93595.03;5093280;28;20195;-54
2023/03/07 05:15:01;;;;;;;11.23;6.93;;;;;;;8.01;84.56;93648.31;5075020;28;20218;-57
2023/03/07 05:17:29;;;;;;;15.20;7.30;;;;;;;7.92;85.55;93624.63;5093144;28;20760;-55
2023/03/07 05:19:54;;;;;;;14.73;7.10;;;;;;;7.73;87.20;93596.09;5093068;28;20214;-54
2023/03/07 05:22:20;;;;;;;11.40;6.63;;;;;;;8.66;100.00;93672.69;5093038;28;20295;-54
2023/03/07 05:24:45;;;;;;;13.87;7.80;;;;;;;8.80;100.00;93743.94;5093168;28;20600;-55
2023/03/07 05:27:11;;;;;;;12.03;6.97;;;;;;;8.71;100.00;93896.78;5093007;28;20200;-55
2023/03/07 05:29:37;;;;;;;16.03;7.87;;;;;;;8.79;100.00;93898.63;5093049;28;20262;-56
2023/03/07 05:32:03;;;;;;;15.57;8.10;;;;;;;8.89;100.00;93930.59;5093089;28;20185;-54
2023/03/07 05:34:29;;;;;;;13.20;8.30;;;;;;;8.96;100.00;93925.78;5093072;28;20219;-54
2023/03/07 05:36:57;;;;;;;12.87;6.63;;;;;;;9.15;100.00;93944.28;5092951;28;20192;-56
2023/03/07 05:39:23;;;;;;;13.77;8.07;;;;;;;9.16;100.00;93942.53;5092765;28;20617;-54
2023/03/07 05:41:48;;;;;;;15.67;8.40;;;;;;;8.82;100.00;93885.69;5074468;28;20240;-58
2023/03/07 05:44:14;;;;;;;13.93;8.13;;;;;;;8.76;100.00;93886.25;5092830;28;20228;-57
2023/03/07 05:46:39;;;;;;;13.70;7.90;;;;;;;8.63;100.00;93868.00;5092605;28;20188;-58
2023/03/07 05:49:05;;;;;;;13.17;8.43;;;;;;;8.83;100.00;93893.16;5092641;28;20203;-58
2023/03/07 05:51:31;;;;;;;12.93;7.80;;;;;;;9.06;100.00;93916.44;5074209;28;20623;-58
2023/03/07 05:53:56;;;;;;;20.77;8.20;;;;;;;8.95;100.00;93907.25;5074221;28;20200;-55
2023/03/07 05:56:21;;;;;;;16.30;8.67;;;;;;;8.88;100.00;93921.44;5074376;28;20240;-54
2023/03/07 05:58:47;;;;;;;13.60;8.27;;;;;;;8.94;100.00;93928.47;5092464;28;20211;-54
2023/03/07 06:01:12;;;;;;;15.77;8.77;;;;;;;8.98;100.00;93934.06;5092208;28;20215;-54
2023/03/07 06:03:38;;;;;;;14.43;8.07;;;;;;;9.08;100.00;93939.91;5092278;28;20658;-56
2023/03/07 06:06:04;;;;;;;17.47;8.67;;;;;;;9.30;100.00;93950.50;5092189;28;20273;-55
2023/03/07 06:08:29;;;;;;;16.47;8.43;;;;;;;9.21;100.00;93931.03;5073423;28;20268;-55
2023/03/07 06:10:55;;;;;;;22.77;8.57;;;;;;;9.04;100.00;93901.38;5091851;28;20211;-53
2023/03/07 06:13:22;;;;;;;22.90;9.17;;;;;;;8.98;100.00;93874.03;5092261;28;20192;-53
2023/03/07 06:15:52;;;;;;;17.40;8.97;;;;;;;9.06;100.00;93902.03;5073813;28;20207;-54
2023/03/07 06:18:19;;;;;;;16.10;8.47;;;;;;;9.23;100.00;93948.66;5092133;28;20186;-53
2023/03/07 06:20:57;;;;;;;18.40;9.23;;;;;;;9.36;100.00;93969.44;5092398;28;20229;-57
2023/03/07 06:23:23;;;;;;;17.93;8.80;;;;;;;9.42;100.00;93973.13;5092218;28;20203;-57
2023/03/07 06:25:49;;;;;;;14.43;8.63;;;;;;;9.39;100.00;93959.00;5091770;28;20216;-59
2023/03/07 06:28:14;;;;;;;14.90;7.43;;;;;;;9.39;100.00;93953.13;5091487;28;20328;-58
2023/03/07 06:30:39;;;;;;;15.40;8.57;;;;;;;9.23;100.00;93931.69;5092211;28;20290;-58
2023/03/07 06:33:18;;;;;;;13.30;7.90;;;;;;;9.31;100.00;93952.09;5091931;28;20185;-58
2023/03/07 06:35:44;;;;;;;15.57;7.43;;;;;;;9.29;100.00;93963.34;5073802;28;20216;-59
2023/03/07 06:38:12;;;;;;;14.57;7.97;;;;;;;9.30;100.00;93954.75;5056859;28;20206;-58
2023/03/07 06:40:37;;;;;;;12.53;8.13;;;;;;;9.38;100.00;93937.13;5091608;28;20716;-57
2023/03/07 06:43:03;;;;;;;14.63;7.40;;;;;;;9.45;100.00;93998.25;5091711;28;20196;-57
2023/03/07 06:45:29;;;;;;;11.77;7.60;;;;;;;9.43;100.00;93965.41;5092018;28;20229;-58
2023/03/07 06:47:54;;;;;;;11.57;6.90;;;;;;;9.58;100.00;93991.91;5091439;28;20199;-58
2023/03/07 06:50:20;;;;;;;12.70;7.20;;;;;;;9.71;100.00;94011.88;5092008;28;20208;-58
2023/03/07 06:52:45;;;;;;;11.93;7.17;;;;;;;9.80;100.00;94021.97;5091570;28;20245;-58
2023/03/07 06:55:11;;;;;;;10.60;7.30;;;;;;;10.15;100.00;94049.25;5073527;28;20208;-58
2023/03/07 06:57:36;;;;;;;14.47;8.13;;;;;;;10.38;100.00;94067.44;5091885;28;20192;-55
2023/03/07 07:00:06;;;;;;;13.00;7.70;;;;;;;10.33;100.00;94046.72;5091411;28;20255;-59
2023/03/07 07:02:31;;;;;;;14.00;6.73;;;;;;;10.34;100.00;94038.16;5091250;28;20270;-59
2023/03/07 07:04:57;;;;;;;12.73;8.37;;;;;;;10.35;100.00;94030.41;5091610;28;20706;-58
2023/03/07 07:07:24;;;;;;;17.43;7.87;;;;;;;10.54;100.00;94070.94;5091319;28;20553;-56
2023/03/07 07:09:51;;;;;;;14.17;9.20;;;;;;;10.38;100.00;94039.47;5089284;28;20292;-59
2023/03/07 07:12:17;;;;;;;14.13;8.63;;;;;;;10.44;100.00;94042.25;5091460;28;20576;-54
2023/03/07 07:14:42;;;;;;;15.50;7.50;;;;;;;10.50;100.00;94045.94;5091360;28;20204;-54
2023/03/07 07:17:08;;;;;;;11.43;6.67;;;;;;;10.42;100.00;94041.59;5091197;28;20249;-54
2023/03/07 07:19:33;;;;;;;11.93;7.50;;;;;;;10.29;100.00;94008.09;5091206;28;20281;-58
2023/03/07 07:21:59;;;;;;;13.80;7.67;;;;;;;10.31;100.00;93972.41;5091150;28;20206;-56
2023/03/07 07:24:25;;;;;;;10.30;6.87;;;;;;;10.35;100.00;94001.66;5091054;28;20199;-56
2023/03/07 07:26:50;;;;;;;11.53;7.67;;;;;;;10.32;100.00;94002.75;5091211;28;20198;-56
2023/03/07 07:29:15;;;;;;;12.43;7.43;;;;;;;10.43;100.00;94019.50;5090926;28;20557;-56
2023/03/07 07:31:41;;;;;;;12.23;6.70;;;;;;;10.55;100.00;94048.84;5090822;28;20635;-57
2023/03/07 07:34:07;;;;;;;13.20;6.53;;;;;;;10.65;100.00;94042.75;5090825;28;20653;-57
2023/03/07 07:36:33;;;;;;;10.97;6.47;;;;;;;10.78;100.00;94060.19;5071370;28;20192;-54
2023/03/07 07:39:02;;;;;;;8.37;5.63;;;;;;;10.89;99.49;94105.72;5090728;28;20235;-55
2023/03/07 07:41:28;;;;;;;10.17;6.30;;;;;;;11.10;99.52;94108.78;5090903;28;20216;-54
2023/03/07 07:43:54;;;;;;;9.03;6.63;;;;;;;11.31;98.40;94121.97;5090712;28;20204;-55
2023/03/07 07:46:19;;;;;;;11.93;6.73;;;;;;;11.47;97.95;94132.28;5090856;28;20309;-54
2023/03/07 07:48:47;;;;;;;10.07;6.50;;;;;;;11.62;97.77;94137.66;5090511;28;20215;-55
2023/03/07 07:51:13;;;;;;;11.07;6.37;;;;;;;11.77;97.07;94152.28;5090857;28;20247;-57
2023/03/07 07:53:38;;;;;;;7.67;5.17;;;;;;;11.86;95.74;94177.81;5090809;28;20559;-56
2023/03/07 07:56:04;;;;;;;10.87;5.37;;;;;;;11.98;94.64;94197.75;5091130;28;20565;-54
2023/03/07 07:58:29;;;;;;;9.17;5.80;;;;;;;12.06;77.89;94204.69;5090837;28;20279;-59
2023/03/07 08:00:55;;;;;;;9.70;4.97;;;;;;;12.01;77.20;94201.75;5090913;28;20559;-56
2023/03/07 08:03:20;;;;;;;8.80;5.70;;;;;;;12.28;76.18;94206.72;5090683;28;20188;-54
2023/03/07 08:05:47;;;;;;;9.47;5.80;;;;;;;12.66;73.26;94213.91;5090506;28;20223;-55
2023/03/07 08:08:17;;;;;;;7.37;5.27;;;;;;;12.80;70.58;94241.38;5090531;28;20233;-55
2023/03/07 08:10:43;;;;;;;13.13;6.87;;;;;;;12.85;70.13;94243.47;5090552;28;20210;-54
2023/03/07 08:13:13;;;;;;;13.67;6.40;;;;;;;13.06;70.18;94228.59;5090552;28;20318;-55
2023/03/07 08:15:39;;;;;;;11.23;5.90;;;;;;;13.25;67.91;94272.50;5091304;28;20204;-55
2023/03/07 08:18:04;;;;;;;7.93;5.67;;;;;;;13.33;67.96;94262.31;5090384;28;20196;-55
2023/03/07 08:20:30;;;;;;;8.43;6.07;;;;;;;13.46;68.05;94252.47;5090869;28;20199;-57
2023/03/07 08:22:55;;;;;;;11.43;6.67;;;;;;;13.59;66.83;94284.41;5090523;28;20279;-55
2023/03/07 08:25:23;;;;;;;7.33;5.17;;;;;;;14.02;67.89;94246.59;5072425;28;20584;-55
2023/03/07 08:27:54;;;;;;;11.20;6.10;;;;;;;14.37;65.46;94313.69;5072492;28;20679;-60
2023/03/07 08:30:30;;;;;;;10.93;6.60;;;;;;;14.45;65.60;94296.59;5090414;28;20211;-54
2023/03/07 08:32:56;;;;;;;9.40;5.33;;;;;;;14.64;62.17;94369.66;5093505;28;20192;-54
2023/03/07 08:35:23;;;;;;;7.22;5.60;;;;;;;15.09;62.44;94364.75;5094355;28;20219;-55
2023/03/07 08:37:53;;;;;;;11.93;5.85;;;;;;;14.74;60.76;94289.22;5093924;28;20637;-58
2023/03/07 08:40:19;;;;;;;13.17;6.60;;;;;;;14.73;61.09;94281.66;5094311;28;20200;-57
2023/03/07 08:42:45;;;;;;;9.23;6.47;;;;;;;14.57;61.36;94262.03;5093670;28;20216;-57
2023/03/07 08:45:11;;;;;;;10.97;6.57;;;;;;;14.58;62.74;94230.41;5093701;28;20208;-56
2023/03/07 08:47:36;;;;;;;17.80;6.37;;;;;;;15.00;60.06;94274.41;5093665;28;20605;-56
2023/03/07 08:50:03;;;;;;;6.70;5.75;;;;;;;15.53;58.56;94308.78;5093704;28;20226;-54
2023/03/07 08:52:29;;;;;;;10.63;5.72;;;;;;;15.64;57.45;94316.06;5093510;28;20188;-55
2023/03/07 08:54:54;;;;;;;9.63;5.72;;;;;;;14.44;58.68;94266.88;5093617;28;20282;-54
2023/03/07 08:57:20;;;;;;;12.90;5.78;;;;;;;15.07;59.07;94259.97;5092863;28;20675;-58
2023/03/07 08:59:46;;;;;;;11.77;5.30;;;;;;;15.19;58.25;94268.06;5093609;28;20280;-57
2023/03/07 09:02:11;;;;;;;7.50;5.13;;;;;;;15.44;56.87;94292.63;5093490;28;20338;-54
2023/03/07 09:04:37;;;;;;;8.88;5.38;;;;;;;15.44;55.14;94338.75;5093629;28;20273;-58
2023/03/07 09:07:03;;;;;;;7.40;5.50;;;;;;;16.27;53.40;94355.09;5093196;28;20251;-57
2023/03/07 09:09:30;;;;;;;8.98;5.80;;;;;;;16.64;53.09;94328.69;5093045;28;20696;-57
2023/03/07 09:11:55;;;;;;;6.07;4.70;;;;;;;16.48;53.22;94303.13;5093333;28;20283;-57
2023/03/07 09:14:21;;;;;;;6.15;4.30;;;;;;;16.31;51.44;94328.13;5093575;28;20286;-56
2023/03/07 09:16:46;;;;;;;8.77;4.50;;;;;;;16.86;49.61;94353.50;5093193;28;20297;-58
2023/03/07 09:19:12;;;;;;;10.32;5.35;;;;;;;16.14;51.03;94289.97;5093201;28;20279;-56
2023/03/07 09:21:37;;;;;;;11.98;6.03;;;;;;;15.81;52.72;94245.81;5093046;28;20246;-59
2023/03/07 09:24:03;;;;;;;9.18;6.35;;;;;;;15.49;53.72;94202.47;5093090;28;20220;-55
2023/03/07 09:26:29;;;;;;;7.50;5.53;;;;;;;15.38;53.21;94220.75;5075005;28;20188;-56
2023/03/07 09:28:54;;;;;;;7.78;5.68;;;;;;;15.99;51.26;94271.94;5093234;28;20342;-57
2023/03/07 09:31:20;;;;;;;11.60;5.30;;;;;;;16.66;51.17;94275.41;5093233;28;20199;-55
2023/03/07 09:33:46;;;;;;;9.10;5.38;;;;;;;16.94;50.32;94291.00;5092778;28;20594;-54
2023/03/07 09:36:12;;;;;;;9.35;4.65;;;;;;;16.47;49.03;94322.88;5092970;28;20559;-56
2023/03/07 09:38:38;;;;;;;8.48;4.68;;;;;;;17.11;48.38;94323.25;5092755;28;20296;-55
2023/03/07 09:41:42;;;;;;;6.22;4.45;;;;;;;18.06;46.88;94356.44;5092799;28;20731;-53
2023/03/07 09:44:31;;;;;;;7.20;4.47;;;;;;;18.45;43.41;94428.13;5060258;28;20230;-55
2023/03/07 09:47:11;;;;;;;6.85;4.28;;;;;;;18.54;41.46;94432.19;5093041;28;20272;-56
2023/03/07 09:49:48;;;;;;;6.00;3.60;;;;;;;18.76;39.33;94420.09;5093166;28;20298;-56
2023/03/07 09:52:18;;;;;;;5.03;3.65;;;;;;;18.31;39.15;94383.41;5092386;28;20218;-54
2023/03/07 09:55:00;;;;;;;8.35;3.72;;;;;;;18.62;41.92;94287.06;5092173;28;20285;-55
2023/03/07 09:57:36;;;;;;;6.07;3.42;;;;;;;18.61;38.32;94368.66;5074581;28;20196;-55
2023/03/07 10:00:20;;;;;;;6.85;3.58;;;;;;;18.80;39.32;94328.59;5092787;28;20202;-55
2023/03/07 10:03:06;;;;;;;3.78;2.97;;;;;;;17.71;40.50;94269.81;5092721;28;20226;-54
2023/03/07 10:05:38;;;;;;;5.03;3.10;;;;;;;17.99;40.23;94270.69;5092561;28;20633;-54
2023/03/07 10:08:05;;;;;;;4.90;2.30;;;;;;;18.78;39.17;94299.66;5092697;28;20744;-54
2023/03/07 10:10:38;;;;;;;4.53;3.10;;;;;;;18.92;39.14;94291.03;5092828;28;20219;-54
2023/03/07 10:13:43;;;;;;;4.32;2.55;;;;;;;19.09;37.59;94320.66;5092530;28;20176;-54
2023/03/07 10:16:32;;;;;;;7.10;3.97;;;;;;;18.57;38.64;94274.75;5092607;28;20188;-54
2023/03/07 10:18:58;;;;;;;4.95;3.45;;;;;;;19.81;37.85;94297.81;5092895;28;20203;-54
2023/03/07 10:21:23;;;;;;;6.55;4.20;;;;;;;20.29;37.46;94303.66;5092449;28;20220;-55
2023/03/07 10:24:22;;;;;;;5.25;3.40;;;;;;;19.84;38.40;94262.09;5092244;28;20196;-59
2023/03/07 10:27:11;;;;;;;5.28;3.83;;;;;;;19.47;38.62;94241.16;5092192;28;20286;-58
2023/03/07 10:29:39;;;;;;;5.97;3.88;;;;;;;17.43;41.37;94136.03;5092406;28;20207;-57
2023/03/07 10:32:36;;;;;;;7.55;3.63;;;;;;;17.23;42.55;94104.22;5073764;28;20196;-58
2023/03/07 10:35:10;;;;;;;8.70;3.63;;;;;;;17.69;42.67;94096.16;5092428;28;20200;-57
2023/03/07 10:37:53;;;;;;;4.40;3.50;;;;;;;17.42;41.60;94123.38;5092286;28;20541;-58
2023/03/07 10:40:27;;;;;;;6.10;3.85;;;;;;;17.60;42.59;94098.84;5092420;28;20240;-57
2023/03/07 10:42:53;;;;;;;5.90;3.45;;;;;;;16.55;42.62;94084.16;5091834;28;20207;-57
2023/03/07 10:45:19;;;;;;;6.45;3.33;;;;;;;16.15;43.23;94058.97;5091934;28;20254;-54
2023/03/07 10:47:45;;;;;;;8.18;2.92;;;;;;;16.25;44.42;94020.22;5091845;28;20614;-53
2023/03/07 10:50:22;;;;;;;5.07;3.50;;;;;;;16.06;43.94;94036.94;5091749;28;20222;-54
2023/03/07 10:52:52;;;;;;;6.82;3.45;;;;;;;15.90;44.71;94006.34;5091821;28;20184;-54
2023/03/07 10:55:36;;;;;;;5.07;2.90;;;;;;;15.35;43.30;94044.38;5091453;28;20677;-54
2023/03/07 10:58:13;;;;;;;6.13;3.38;;;;;;;15.02;44.70;94000.31;5091685;28;20574;-56
2023/03/07 11:00:39;;;;;;;3.88;2.50;;;;;;;14.73;45.98;93957.53;5092051;28;20216;-56
2023/03/07 11:03:22;;;;;;;7.28;3.65;;;;;;;14.77;44.77;93991.22;5091313;28;20286;-55
2023/03/07 11:05:48;;;;;;;5.65;2.60;;;;;;;14.67;46.00;93942.88;5091289;28;20216;-54
2023/03/07 11:08:26;;;;;;;5.55;2.15;;;;;;;15.46;44.73;93972.25;5090380;28;20680;-56
2023/03/07 11:10:51;;;;;;;5.57;2.10;;;;;;;15.57;43.66;94005.13;5091226;28;20214;-56
2023/03/07 11:13:19;;;;;;;6.90;2.38;;;;;;;16.02;42.36;94033.13;5091331;28;20582;-57
2023/03/07 11:15:45;;;;;;;4.80;2.40;;;;;;;15.86;43.10;94005.13;5091530;28;20696;-58
2023/03/07 11:18:40;;;;;;;4.18;2.42;;;;;;;15.80;43.32;93982.75;5090300;28;20268;-58
2023/03/07 11:21:22;;;;;;;4.35;2.70;;;;;;;15.68;44.33;93950.88;5090908;28;20184;-57
2023/03/07 11:24:00;;;;;;;5.55;2.60;;;;;;;15.54;44.44;93944.00;5098906;22;20240;-58
2023/03/07 11:26:25;;;;;;;4.63;2.00;;;;;;;15.45;43.66;93958.66;5071155;28;20188;-59
2023/03/07 11:29:10;;;;;;;5.00;2.00;;;;;;;15.54;42.65;93982.41;5052939;28;20303;-58
2023/03/07 11:31:57;;;;;;;6.47;2.50;;;;;;;15.51;43.69;93947.72;5071265;28;20181;-58
2023/03/07 11:34:32;;;;;;;5.47;2.72;;;;;;;15.47;45.51;93861.16;5070700;28;20289;-57
2023/03/07 11:37:27;;;;;;;7.28;2.83;;;;;;;15.70;45.60;93890.78;5070407;28;20172;-56